Time;durP1;ratioP1;P1;durP2;ratioP2;P2;SDS_P1;SDS_P2;PMS_P1;PMS_P2;Temp;Humidity;BMP_temperature;BMP_pressure;BME280_temperature;BME280_humidity;BME280_pressure;Samples;Min_cycle;Max_cycle;Signal;HPM_P1;HPM_P2
2023/09/19 00:00:51;;;;;;;1.98;1.20;;;;;;;;;;6049733;23;20011;-78
2023/09/19 00:03:16;;;;;;;;;;;;;;;;;;6016074;23;20022;-78
2023/09/19 00:05:47;;;;;;;4.40;1.13;;;;;;;;;;5992495;23;19914;-79
2023/09/19 00:08:14;;;;;;;4.28;0.95;;;;;;;;;;6016382;23;20051;-80
2023/09/19 00:10:41;;;;;;;2.47;1.00;;;;;;;;;;5991640;23;20040;-81
2023/09/19 00:13:18;;;;;;;1.98;1.10;;;;;;;;;;6003478;23;20027;-80
2023/09/19 00:15:50;;;;;;;3.08;1.10;;;;;;;;;;6075486;23;20260;-78
2023/09/19 00:18:17;;;;;;;;;;;;;;;;;;6075785;23;20007;-77
2023/09/19 00:20:49;;;;;;;2.30;1.00;;;;;;;;;;6076630;23;19909;-77
2023/09/19 00:23:21;;;;;;;1.50;0.65;;;;;;;;;;6050928;23;20326;-77
2023/09/19 00:25:48;;;;;;;1.67;0.70;;;;;;;;;;6074334;23;20011;-77
2023/09/19 00:28:16;;;;;;;1.20;0.85;;;;;;;;;;6074233;23;20007;-78
2023/09/19 00:30:44;;;;;;;3.83;0.93;;;;;;;;;;6077663;23;20014;-79
2023/09/19 00:33:11;;;;;;;2.85;1.02;;;;;;;;;;6081196;23;20010;-76
2023/09/19 00:35:37;;;;;;;0.85;0.85;;;;;;;;;;6076676;23;20017;-80
2023/09/19 00:38:10;;;;;;;2.25;0.65;;;;;;;;;;6076129;23;20039;-79
2023/09/19 00:40:36;;;;;;;1.42;0.85;;;;;;;;;;6076972;23;19999;-78
2023/09/19 00:43:03;;;;;;;5.43;1.25;;;;;;;;;;6074910;23;20006;-79
2023/09/19 00:45:30;;;;;;;6.55;1.15;;;;;;;;;;6077542;23;20009;-77
2023/09/19 00:47:57;;;;;;;1.25;1.10;;;;;;;;;;6077167;23;20030;-78
2023/09/19 00:50:27;;;;;;;2.15;0.77;;;;;;;;;;6078698;23;20029;-79
2023/09/19 00:52:57;;;;;;;1.85;0.80;;;;;;;;;;6051267;23;20010;-77
2023/09/19 00:55:24;;;;;;;1.05;0.65;;;;;;;;;;6073890;23;20014;-77
2023/09/19 00:57:50;;;;;;;2.00;0.88;;;;;;;;;;6074402;23;20011;-79
2023/09/19 01:00:20;;;;;;;2.83;0.80;;;;;;;;;;6073568;23;20022;-77
2023/09/19 01:02:47;;;;;;;2.00;0.80;;;;;;;;;;6073982;23;20069;-77
2023/09/19 01:05:14;;;;;;;2.15;0.90;;;;;;;;;;6074512;23;20106;-79
2023/09/19 01:07:41;;;;;;;4.10;1.13;;;;;;;;;;6051280;23;20015;-80
2023/09/19 01:10:14;;;;;;;2.45;1.83;;;;;;;;;;6051938;23;20035;-79
2023/09/19 01:12:55;;;;;;;3.55;1.08;;;;;;;;;;6075156;23;20014;-79
2023/09/19 01:15:40;;;;;;;6.13;1.05;;;;;;;;;;6076528;23;20040;-80
2023/09/19 01:18:50;;;;;;;2.75;1.00;;;;;;;;;;6075330;23;20014;-80
2023/09/19 01:21:58;;;;;;;8.77;1.25;;;;;;;;;;6076788;23;20003;-78
2023/09/19 01:25:01;;;;;;;5.25;1.05;;;;;;;;;;6078575;23;20054;-78
2023/09/19 01:28:21;;;;;;;1.65;0.77;;;;;;;;;;6077294;23;20007;-79
2023/09/19 01:30:54;;;;;;;1.20;0.90;;;;;;;;;;6073226;23;20010;-78
2023/09/19 01:33:51;;;;;;;0.95;0.80;;;;;;;;;;6059164;23;20121;-78
2023/09/19 01:36:19;;;;;;;1.77;0.98;;;;;;;;;;6075020;23;20006;-78
2023/09/19 01:38:45;;;;;;;1.50;1.00;;;;;;;;;;6076375;23;20003;-78
2023/09/19 01:41:17;;;;;;;1.33;0.88;;;;;;;;;;6075681;23;20014;-79
2023/09/19 01:43:46;;;;;;;0.68;0.57;;;;;;;;;;6074868;23;20062;-78
2023/09/19 01:46:29;;;;;;;1.60;1.38;;;;;;;;;;6074373;23;20070;-79
2023/09/19 01:49:13;;;;;;;0.82;0.70;;;;;;;;;;6099676;23;20018;-78
2023/09/19 01:52:19;;;;;;;1.05;0.90;;;;;;;;;;6080324;23;20039;-77
2023/09/19 01:54:56;;;;;;;0.75;0.70;;;;;;;;;;6082607;23;20011;-80
2023/09/19 01:57:46;;;;;;;3.60;1.08;;;;;;;;;;6085505;23;19994;-78
2023/09/19 02:00:16;;;;;;;3.92;0.90;;;;;;;;;;6088422;23;20014;-77
2023/09/19 02:02:48;;;;;;;4.38;1.55;;;;;;;;;;6087303;23;20007;-79
2023/09/19 02:05:30;;;;;;;1.13;0.98;;;;;;;;;;6085034;23;20010;-77
2023/09/19 02:07:56;;;;;;;1.52;0.73;;;;;;;;;;6085984;23;20015;-77
2023/09/19 02:10:25;;;;;;;1.45;0.70;;;;;;;;;;6082282;23;20002;-78
2023/09/19 02:12:51;;;;;;;1.20;0.70;;;;;;;;;;6081605;23;20007;-79
2023/09/19 02:15:19;;;;;;;2.63;0.77;;;;;;;;;;6080849;23;20014;-78
2023/09/19 02:17:45;;;;;;;1.95;0.93;;;;;;;;;;6103745;23;20009;-79
2023/09/19 02:20:14;;;;;;;4.85;2.80;;;;;;;;;;6079941;23;20062;-78
2023/09/19 02:22:42;;;;;;;0.98;0.70;;;;;;;;;;6078573;23;20456;-78
2023/09/19 02:25:09;;;;;;;1.88;0.80;;;;;;;;;;6078386;23;20007;-78
2023/09/19 02:27:36;;;;;;;0.85;0.85;;;;;;;;;;6076879;23;20033;-77
2023/09/19 02:30:06;;;;;;;3.13;0.88;;;;;;;;;;6077967;23;20070;-78
2023/09/19 02:32:35;;;;;;;1.75;0.80;;;;;;;;;;6077102;23;20014;-79
2023/09/19 02:35:07;;;;;;;0.70;0.63;;;;;;;;;;6079427;23;20002;-78
2023/09/19 02:37:37;;;;;;;1.73;0.70;;;;;;;;;;6100063;23;20085;-77
2023/09/19 02:40:18;;;;;;;1.75;0.88;;;;;;;;;;6075568;23;20014;-77
2023/09/19 02:42:48;;;;;;;3.63;0.73;;;;;;;;;;6075044;23;20010;-80
2023/09/19 02:45:22;;;;;;;1.80;1.10;;;;;;;;;;6077021;23;20011;-77
2023/09/19 02:47:49;;;;;;;2.15;0.80;;;;;;;;;;6077540;23;20003;-77
2023/09/19 02:50:16;;;;;;;1.00;0.90;;;;;;;;;;6076873;23;20082;-79
2023/09/19 02:52:44;;;;;;;1.85;0.80;;;;;;;;;;6053419;23;20007;-79
2023/09/19 02:55:17;;;;;;;4.18;1.00;;;;;;;;;;6077425;23;20027;-79
2023/09/19 02:57:50;;;;;;;1.70;0.80;;;;;;;;;;6077228;23;20447;-78
2023/09/19 03:00:21;;;;;;;0.80;0.80;;;;;;;;;;6080320;23;20034;-78
2023/09/19 03:02:52;;;;;;;;;;;;;;;;;;6079506;23;20011;-77
2023/09/19 03:05:20;;;;;;;1.83;0.87;;;;;;;;;;6082741;23;19909;-77
2023/09/19 03:07:50;;;;;;;3.08;0.90;;;;;;;;;;6080069;23;20003;-78
2023/09/19 03:10:21;;;;;;;2.38;0.85;;;;;;;;;;6074143;23;20454;-78
2023/09/19 03:13:04;;;;;;;1.55;0.98;;;;;;;;;;6073953;23;20035;-79
2023/09/19 03:15:31;;;;;;;1.33;0.52;;;;;;;;;;6074893;23;20007;-78
2023/09/19 03:17:59;;;;;;;3.00;0.82;;;;;;;;;;6074052;23;20117;-80
2023/09/19 03:20:28;;;;;;;3.25;0.70;;;;;;;;;;6074547;23;20010;-78
2023/09/19 03:23:00;;;;;;;1.75;0.75;;;;;;;;;;6074409;23;20883;-78
2023/09/19 03:25:28;;;;;;;0.80;0.60;;;;;;;;;;6074024;23;20425;-77
2023/09/19 03:28:00;;;;;;;1.55;0.93;;;;;;;;;;6075942;23;20022;-80
2023/09/19 03:30:26;;;;;;;;;;;;;;;;;;6099165;23;20007;-79
2023/09/19 03:33:01;;;;;;;2.33;0.65;;;;;;;;;;6075703;23;19933;-79
2023/09/19 03:35:31;;;;;;;3.03;1.15;;;;;;;;;;6076556;23;20003;-79
2023/09/19 03:37:57;;;;;;;1.25;0.90;;;;;;;;;;6076141;23;20066;-76
2023/09/19 03:40:32;;;;;;;1.95;0.75;;;;;;;;;;6075436;23;20051;-77
2023/09/19 03:43:01;;;;;;;2.70;1.00;;;;;;;;;;6076598;23;20002;-77
2023/09/19 03:45:30;;;;;;;1.60;1.05;;;;;;;;;;6078757;23;20006;-79
2023/09/19 03:47:57;;;;;;;1.45;0.55;;;;;;;;;;6077410;23;20014;-78
2023/09/19 03:50:23;;;;;;;0.65;0.65;;;;;;;;;;6081935;23;20067;-78
2023/09/19 03:52:49;;;;;;;3.30;1.10;;;;;;;;;;6082476;23;20030;-78
2023/09/19 03:55:21;;;;;;;6.40;3.58;;;;;;;;;;6082182;23;20010;-78
2023/09/19 03:57:50;;;;;;;1.95;0.75;;;;;;;;;;6081708;23;20003;-79
2023/09/19 04:00:20;;;;;;;2.33;0.90;;;;;;;;;;6077848;23;20012;-77
2023/09/19 04:02:48;;;;;;;1.95;0.85;;;;;;;;;;6076498;23;20020;-79
2023/09/19 04:05:16;;;;;;;1.83;0.90;;;;;;;;;;6074033;23;20011;-79
2023/09/19 04:07:42;;;;;;;5.18;1.40;;;;;;;;;;6097835;23;20378;-78
2023/09/19 04:10:14;;;;;;;4.07;1.67;;;;;;;;;;6075733;23;20054;-78
2023/09/19 04:12:53;;;;;;;2.72;0.95;;;;;;;;;;6074239;23;20078;-79
2023/09/19 04:15:27;;;;;;;3.10;1.20;;;;;;;;;;6046328;23;20021;-77
2023/09/19 04:17:53;;;;;;;3.17;1.30;;;;;;;;;;6021111;23;20018;-78
2023/09/19 04:20:19;;;;;;;3.60;1.10;;;;;;;;;;6021645;23;20003;-77
2023/09/19 04:22:47;;;;;;;2.63;1.35;;;;;;;;;;6021816;23;20019;-78
2023/09/19 04:25:13;;;;;;;3.58;1.20;;;;;;;;;;6021721;23;20018;-77
2023/09/19 04:27:41;;;;;;;3.65;1.30;;;;;;;;;;6022049;23;20047;-76
2023/09/19 04:30:17;;;;;;;1.70;1.30;;;;;;;;;;6000180;23;20501;-79
2023/09/19 04:32:50;;;;;;;4.80;1.52;;;;;;;;;;6045668;23;20007;-78
2023/09/19 04:35:19;;;;;;;5.07;1.48;;;;;;;;;;6021275;23;20094;-80
2023/09/19 04:37:51;;;;;;;4.28;1.98;;;;;;;;;;6018506;23;20025;-78
2023/09/19 04:40:22;;;;;;;2.45;1.45;;;;;;;;;;6044173;23;19999;-78
2023/09/19 04:42:58;;;;;;;6.20;1.95;;;;;;;;;;6018834;23;20050;-78
2023/09/19 04:45:29;;;;;;;3.53;1.42;;;;;;;;;;6018968;23;20429;-79
2023/09/19 04:47:57;;;;;;;2.08;1.40;;;;;;;;;;6045746;23;20026;-77
2023/09/19 04:50:27;;;;;;;2.13;1.40;;;;;;;;;;6046282;23;20023;-76
2023/09/19 04:52:54;;;;;;;5.70;1.70;;;;;;;;;;6044905;23;20039;-74
2023/09/19 04:55:30;;;;;;;5.38;1.33;;;;;;;;;;6044612;23;20335;-76
2023/09/19 04:57:56;;;;;;;3.65;1.52;;;;;;;;;;6020174;23;20355;-74
2023/09/19 05:00:27;;;;;;;2.03;1.40;;;;;;;;;;6021326;23;20011;-74
2023/09/19 05:02:57;;;;;;;2.83;1.60;;;;;;;;;;6046175;23;20007;-75
2023/09/19 05:05:26;;;;;;;1.77;1.02;;;;;;;;;;6045484;23;20014;-75
2023/09/19 05:07:57;;;;;;;6.95;1.67;;;;;;;;;;6016942;23;20133;-78
2023/09/19 05:10:34;;;;;;;2.17;1.38;;;;;;;;;;6047224;23;20369;-77
2023/09/19 05:13:12;;;;;;;1.70;1.40;;;;;;;;;;6021288;23;20007;-74
2023/09/19 05:15:40;;;;;;;4.97;1.65;;;;;;;;;;6071308;23;20010;-75
2023/09/19 05:18:10;;;;;;;2.42;1.45;;;;;;;;;;6071187;23;20037;-78
2023/09/19 05:20:46;;;;;;;2.20;1.50;;;;;;;;;;6074347;23;20530;-77
2023/09/19 05:23:12;;;;;;;5.68;1.42;;;;;;;;;;6071949;23;20444;-78
2023/09/19 05:25:40;;;;;;;2.15;1.38;;;;;;;;;;6075469;23;20006;-75
2023/09/19 05:28:11;;;;;;;4.70;2.55;;;;;;;;;;6096906;23;20014;-80
2023/09/19 05:30:44;;;;;;;2.35;1.48;;;;;;;;;;6083913;23;20011;-82
2023/09/19 05:33:17;;;;;;;3.28;1.35;;;;;;;;;;6100794;23;20011;-75
2023/09/19 05:35:50;;;;;;;1.40;1.23;;;;;;;;;;6082977;23;20109;-79
2023/09/19 05:38:31;;;;;;;5.93;1.60;;;;;;;;;;6084564;23;20014;-78
2023/09/19 05:40:57;;;;;;;2.28;1.42;;;;;;;;;;6075574;23;20002;-76
2023/09/19 05:43:26;;;;;;;3.03;1.15;;;;;;;;;;6078418;23;20002;-76
2023/09/19 05:46:03;;;;;;;3.08;1.60;;;;;;;;;;6081088;23;20030;-77
2023/09/19 05:48:30;;;;;;;4.40;1.45;;;;;;;;;;6084462;23;20062;-78
2023/09/19 05:51:01;;;;;;;3.25;1.35;;;;;;;;;;6078621;23;20093;-76
2023/09/19 05:53:30;;;;;;;4.93;2.70;;;;;;;;;;6079019;23;20027;-76
2023/09/19 05:56:09;;;;;;;4.50;1.63;;;;;;;;;;6075609;23;20023;-76
2023/09/19 05:58:35;;;;;;;3.83;1.30;;;;;;;;;;6074235;23;20018;-73
2023/09/19 06:01:07;;;;;;;2.50;1.30;;;;;;;;;;6072811;23;20053;-78
2023/09/19 06:03:33;;;;;;;3.05;1.30;;;;;;;;;;6074131;23;20034;-75
2023/09/19 06:06:00;;;;;;;2.05;1.52;;;;;;;;;;6069939;23;20105;-75
2023/09/19 06:08:33;;;;;;;2.35;1.38;;;;;;;;;;6096757;23;20011;-78
2023/09/19 06:11:07;;;;;;;3.50;1.67;;;;;;;;;;6077457;23;20077;-80
2023/09/19 06:13:43;;;;;;;3.53;1.60;;;;;;;;;;6082063;23;20063;-77
2023/09/19 06:16:13;;;;;;;8.32;1.55;;;;;;;;;;6077991;23;20007;-76
2023/09/19 06:18:45;;;;;;;3.75;1.45;;;;;;;;;;6086315;23;20002;-77
2023/09/19 06:21:11;;;;;;;3.65;1.67;;;;;;;;;;6085723;23;20038;-76
2023/09/19 06:23:43;;;;;;;4.18;1.30;;;;;;;;;;6078866;23;20493;-76
2023/09/19 06:26:16;;;;;;;3.25;1.45;;;;;;;;;;6072848;23;20210;-76
2023/09/19 06:28:44;;;;;;;3.85;1.30;;;;;;;;;;6073165;23;20007;-76
2023/09/19 06:31:12;;;;;;;3.65;1.45;;;;;;;;;;6070848;23;20038;-77
2023/09/19 06:33:44;;;;;;;2.88;1.58;;;;;;;;;;6073429;23;20023;-77
2023/09/19 06:36:15;;;;;;;3.33;1.52;;;;;;;;;;6071390;23;20083;-76
2023/09/19 06:38:47;;;;;;;7.23;1.67;;;;;;;;;;6070881;23;20003;-78
2023/09/19 06:41:18;;;;;;;3.60;1.50;;;;;;;;;;6073823;23;20071;-76
2023/09/19 06:43:48;;;;;;;4.85;1.73;;;;;;;;;;6073487;23;20031;-78
2023/09/19 06:46:22;;;;;;;7.85;1.73;;;;;;;;;;6069297;23;20071;-79
2023/09/19 06:48:53;;;;;;;5.65;1.60;;;;;;;;;;6072477;23;20007;-76
2023/09/19 06:51:22;;;;;;;5.45;1.48;;;;;;;;;;6073529;23;20019;-78
2023/09/19 06:53:54;;;;;;;2.33;1.60;;;;;;;;;;6073662;23;20080;-78
2023/09/19 06:56:23;;;;;;;4.03;1.67;;;;;;;;;;6073104;23;20021;-77
2023/09/19 06:58:56;;;;;;;2.60;1.00;;;;;;;;;;6073289;23;20033;-78
2023/09/19 07:01:25;;;;;;;3.65;1.60;;;;;;;;;;6075272;23;20426;-76
2023/09/19 07:03:53;;;;;;;2.08;1.48;;;;;;;;;;6075766;23;20011;-79
2023/09/19 07:06:18;;;;;;;5.50;1.27;;;;;;;;;;6044614;23;20070;-77
2023/09/19 07:08:55;;;;;;;1.88;1.00;;;;;;;;;;6070242;23;20007;-78
2023/09/19 07:11:27;;;;;;;4.03;1.40;;;;;;;;;;6070232;23;20030;-75
2023/09/19 07:13:53;;;;;;;2.58;1.25;;;;;;;;;;6076561;23;20023;-76
2023/09/19 07:16:29;;;;;;;5.75;1.60;;;;;;;;;;6067973;23;20122;-76
2023/09/19 07:18:58;;;;;;;4.15;1.60;;;;;;;;;;6063186;23;20018;-74
2023/09/19 07:21:24;;;;;;;2.40;1.13;;;;;;;;;;6069122;23;20002;-77
2023/09/19 07:23:50;;;;;;;6.10;1.73;;;;;;;;;;6071294;23;20014;-75
2023/09/19 07:26:16;;;;;;;1.98;1.20;;;;;;;;;;6067938;23;20504;-77
2023/09/19 07:28:43;;;;;;;5.80;1.60;;;;;;;;;;6071672;23;20018;-78
2023/09/19 07:31:10;;;;;;;8.55;1.58;;;;;;;;;;6069926;23;20069;-75
2023/09/19 07:33:36;;;;;;;3.80;1.40;;;;;;;;;;6070125;23;20011;-77
2023/09/19 07:36:02;;;;;;;2.03;1.30;;;;;;;;;;6069132;23;20014;-77
2023/09/19 07:38:28;;;;;;;8.57;1.50;;;;;;;;;;6069636;23;20002;-78
2023/09/19 07:41:00;;;;;;;3.08;1.40;;;;;;;;;;6068128;23;20011;-77
2023/09/19 07:43:26;;;;;;;4.28;1.70;;;;;;;;;;6073116;23;20018;-76
2023/09/19 07:45:52;;;;;;;1.83;1.23;;;;;;;;;;6072118;23;20076;-76
2023/09/19 07:48:18;;;;;;;2.33;1.40;;;;;;;;;;6064233;23;20010;-77
2023/09/19 07:50:44;;;;;;;2.10;1.33;;;;;;;;;;6067499;23;20499;-76
2023/09/19 07:53:13;;;;;;;5.35;1.40;;;;;;;;;;6086749;23;20007;-79
2023/09/19 07:55:48;;;;;;;5.20;1.48;;;;;;;;;;6067074;23;20034;-79
2023/09/19 07:58:15;;;;;;;4.30;1.40;;;;;;;;;;6073786;23;20021;-76
2023/09/19 08:00:41;;;;;;;3.78;1.40;;;;;;;;;;6073511;23;20007;-76
2023/09/19 08:03:08;;;;;;;3.92;1.20;;;;;;;;;;6067036;23;20112;-75
2023/09/19 08:05:34;;;;;;;4.22;1.27;;;;;;;;;;6069809;23;20095;-76
2023/09/19 08:08:01;;;;;;;2.47;1.45;;;;;;;;;;6063713;23;20004;-77
2023/09/19 08:10:27;;;;;;;5.88;1.40;;;;;;;;;;6087828;23;20606;-77
2023/09/19 08:12:57;;;;;;;6.38;3.35;;;;;;;;;;6056907;23;20070;-76
2023/09/19 08:15:25;;;;;;;3.58;1.00;;;;;;;;;;6069517;23;20017;-75
2023/09/19 08:17:51;;;;;;;4.90;1.50;;;;;;;;;;6066743;23;20010;-78
2023/09/19 08:20:17;;;;;;;1.80;1.40;;;;;;;;;;6064405;23;20085;-77
2023/09/19 08:22:47;;;;;;;6.28;1.15;;;;;;;;;;6052650;23;20015;-77
2023/09/19 08:25:17;;;;;;;2.70;1.20;;;;;;;;;;6077604;23;20090;-77
2023/09/19 08:27:50;;;;;;;2.97;1.10;;;;;;;;;;6050917;23;20034;-76
2023/09/19 08:30:18;;;;;;;;;;;;;;;;;;6034129;23;20425;-76
2023/09/19 08:32:44;;;;;;;3.80;1.20;;;;;;;;;;6055800;23;19917;-77
2023/09/19 08:35:11;;;;;;;3.42;1.48;;;;;;;;;;6054911;23;20011;-78
2023/09/19 08:37:36;;;;;;;3.10;1.30;;;;;;;;;;6054024;23;20007;-75
2023/09/19 08:40:03;;;;;;;3.45;1.70;;;;;;;;;;6059190;23;20054;-78
2023/09/19 08:42:31;;;;;;;10.43;4.85;;;;;;;;;;6058186;23;20018;-77
2023/09/19 08:45:00;;;;;;;1.48;1.38;;;;;;;;;;6076237;23;20365;-78
2023/09/19 08:47:38;;;;;;;2.95;1.55;;;;;;;;;;6061937;23;20021;-78
2023/09/19 08:50:33;;;;;;;12.68;8.32;;;;;;;;;;6077445;23;20102;-76
2023/09/19 08:53:16;;;;;;;3.63;3.05;;;;;;;;;;6053533;23;20015;-76
2023/09/19 08:55:46;;;;;;;2.75;1.40;;;;;;;;;;6051517;23;20151;-76
2023/09/19 08:58:19;;;;;;;6.43;1.55;;;;;;;;;;6053827;23;20022;-78
2023/09/19 09:00:49;;;;;;;2.90;1.50;;;;;;;;;;6053539;23;20010;-76
2023/09/19 09:03:19;;;;;;;2.78;1.13;;;;;;;;;;6053840;23;20098;-77
2023/09/19 09:05:47;;;;;;;5.47;1.65;;;;;;;;;;6052926;23;20033;-77
2023/09/19 09:08:14;;;;;;;2.22;1.77;;;;;;;;;;6050364;23;20010;-77
2023/09/19 09:10:40;;;;;;;2.10;1.42;;;;;;;;;;6054699;23;20034;-78
2023/09/19 09:13:06;;;;;;;4.03;1.40;;;;;;;;;;6055379;23;20033;-78
2023/09/19 09:15:38;;;;;;;4.03;1.00;;;;;;;;;;6055504;23;20090;-80
2023/09/19 09:18:04;;;;;;;1.63;1.30;;;;;;;;;;6055139;23;20010;-78
2023/09/19 09:20:30;;;;;;;1.70;1.02;;;;;;;;;;6054262;23;20026;-77
2023/09/19 09:23:04;;;;;;;2.35;1.38;;;;;;;;;;6077541;23;20010;-77
2023/09/19 09:26:02;;;;;;;3.08;1.20;;;;;;;;;;6057259;23;20015;-77
2023/09/19 09:28:30;;;;;;;5.82;1.38;;;;;;;;;;6054945;23;20189;-77
2023/09/19 09:31:18;;;;;;;2.72;1.27;;;;;;;;;;6053746;23;20345;-77
2023/09/19 09:33:54;;;;;;;2.50;1.30;;;;;;;;;;6055764;23;20042;-77
2023/09/19 09:36:37;;;;;;;3.20;2.40;;;;;;;;;;6052412;23;20622;-76
2023/09/19 09:39:15;;;;;;;10.02;1.63;;;;;;;;;;6030253;23;20062;-77
2023/09/19 09:41:43;;;;;;;6.10;1.50;;;;;;;;;;6077204;23;20007;-75
2023/09/19 09:44:19;;;;;;;1.40;1.10;;;;;;;;;;6055879;23;20049;-77
2023/09/19 09:47:27;;;;;;;2.35;0.90;;;;;;;;;;6056307;23;20018;-75
2023/09/19 09:49:33;;;;;;;9.00;1.50;;;;;;;;;;6061251;23;20440;-75
2023/09/19 09:52:09;;;;;;;5.75;1.60;;;;;;;;;;6054431;23;20606;-77
2023/09/19 09:54:38;;;;;;;2.25;1.30;;;;;;;;;;6055488;23;20147;-77
2023/09/19 09:57:20;;;;;;;4.68;0.98;;;;;;;;;;6055259;23;20082;-75
2023/09/19 09:59:47;;;;;;;1.73;1.05;;;;;;;;;;6055490;23;20042;-77
2023/09/19 10:02:14;;;;;;;3.22;1.20;;;;;;;;;;6055918;23;20014;-75
2023/09/19 10:04:51;;;;;;;1.77;1.00;;;;;;;;;;6055336;23;20022;-73
2023/09/19 10:07:32;;;;;;;1.48;0.88;;;;;;;;;;6051028;23;20121;-75
2023/09/19 10:10:21;;;;;;;1.08;0.98;;;;;;;;;;6056946;23;20413;-76
2023/09/19 10:12:48;;;;;;;2.92;1.02;;;;;;;;;;6027442;23;20018;-75
2023/09/19 10:15:17;;;;;;;1.42;1.10;;;;;;;;;;6082820;23;20038;-76
2023/09/19 10:17:48;;;;;;;2.22;1.00;;;;;;;;;;6033938;23;20003;-78
2023/09/19 10:20:33;;;;;;;;;;;;;;;;;;6056490;23;20013;-76
2023/09/19 10:23:11;;;;;;;1.23;0.98;;;;;;;;;;6055828;23;19916;-76
2023/09/19 10:25:42;;;;;;;2.60;0.88;;;;;;;;;;6080637;23;20011;-77
2023/09/19 10:28:13;;;;;;;3.38;0.90;;;;;;;;;;6052975;23;20015;-78
2023/09/19 10:30:50;;;;;;;;;;;;;;;;;;6058718;23;20010;-73
2023/09/19 10:33:25;;;;;;;1.10;0.80;;;;;;;;;;6065041;23;19996;-75
2023/09/19 10:35:55;;;;;;;4.38;1.20;;;;;;;;;;6075480;23;20015;-74
2023/09/19 10:38:24;;;;;;;1.95;1.23;;;;;;;;;;6078116;23;20010;-78
2023/09/19 10:41:00;;;;;;;2.53;0.95;;;;;;;;;;6066342;23;20070;-74
2023/09/19 10:43:32;;;;;;;1.63;1.05;;;;;;;;;;6056085;23;20014;-75
2023/09/19 10:46:03;;;;;;;1.20;1.05;;;;;;;;;;6058476;23;20018;-76
2023/09/19 10:48:29;;;;;;;1.60;0.98;;;;;;;;;;6057164;23;20678;-75
2023/09/19 10:51:04;;;;;;;2.95;1.33;;;;;;;;;;6053898;23;20015;-77
2023/09/19 10:53:42;;;;;;;1.98;1.27;;;;;;;;;;6057034;23;20006;-75
2023/09/19 10:56:17;;;;;;;2.58;1.10;;;;;;;;;;6054132;23;20007;-77
2023/09/19 10:58:44;;;;;;;2.33;0.93;;;;;;;;;;6057141;23;20046;-76
2023/09/19 11:01:17;;;;;;;4.03;1.27;;;;;;;;;;6052059;23;20026;-75
2023/09/19 11:03:45;;;;;;;1.63;1.05;;;;;;;;;;6055414;23;20106;-75
2023/09/19 11:06:20;;;;;;;2.38;1.30;;;;;;;;;;6053372;23;20315;-75
2023/09/19 11:11:52;;;;;;;2.92;1.00;;;;;;;;;;6058857;23;20039;-75
2023/09/19 11:14:24;;;;;;;4.35;1.40;;;;;;;;;;6055619;23;20023;-74
2023/09/19 11:17:11;;;;;;;4.60;1.20;;;;;;;;;;6052573;23;20026;-74
2023/09/19 11:22:56;;;;;;;1.73;1.10;;;;;;;;;;5995215;23;20030;-76
2023/09/19 11:25:47;;;;;;;1.45;1.10;;;;;;;;;;6053607;23;20097;-78
2023/09/19 11:28:21;;;;;;;3.50;1.00;;;;;;;;;;6053304;23;20037;-76
2023/09/19 11:30:55;;;;;;;1.17;1.05;;;;;;;;;;6051414;23;20011;-78
2023/09/19 11:33:23;;;;;;;2.28;0.95;;;;;;;;;;6052333;23;20011;-77
2023/09/19 11:36:15;;;;;;;1.52;1.20;;;;;;;;;;6054314;23;20017;-76
2023/09/19 11:38:44;;;;;;;4.10;1.50;;;;;;;;;;6051957;23;20053;-75
2023/09/19 11:41:29;;;;;;;1.42;1.20;;;;;;;;;;6052014;23;20326;-77
2023/09/19 11:44:03;;;;;;;2.90;1.13;;;;;;;;;;6053490;23;20110;-76
2023/09/19 11:46:33;;;;;;;1.77;1.10;;;;;;;;;;6053710;23;20030;-78
2023/09/19 11:49:13;;;;;;;2.30;0.90;;;;;;;;;;6048666;23;20065;-80
2023/09/19 11:51:44;;;;;;;1.25;1.10;;;;;;;;;;6052962;23;20274;-80
2023/09/19 11:54:17;;;;;;;2.08;1.40;;;;;;;;;;6058825;23;20042;-80
2023/09/19 11:56:50;;;;;;;2.10;1.27;;;;;;;;;;6052883;23;20129;-78
2023/09/19 11:59:30;;;;;;;1.98;1.15;;;;;;;;;;6029891;23;20082;-80
2023/09/19 12:02:08;;;;;;;25.17;2.33;;;;;;;;;;6049503;23;20011;-78
2023/09/19 12:04:48;;;;;;;1.35;1.00;;;;;;;;;;6054983;23;20034;-78
2023/09/19 12:07:15;;;;;;;3.00;1.30;;;;;;;;;;6026111;23;20006;-76
2023/09/19 12:10:05;;;;;;;2.83;1.10;;;;;;;;;;6051127;23;20010;-76
2023/09/19 12:12:32;;;;;;;2.55;1.10;;;;;;;;;;6045919;23;20019;-77
2023/09/19 12:15:03;;;;;;;4.63;1.27;;;;;;;;;;6047107;23;20029;-78
2023/09/19 12:17:42;;;;;;;1.75;0.80;;;;;;;;;;6073952;23;20034;-75
2023/09/19 12:20:16;;;;;;;12.75;2.47;;;;;;;;;;6053461;23;20021;-78
2023/09/19 12:22:43;;;;;;;2.13;1.00;;;;;;;;;;6054587;23;20014;-76
2023/09/19 12:25:11;;;;;;;5.07;1.35;;;;;;;;;;6060313;23;20010;-76
2023/09/19 12:27:46;;;;;;;2.58;1.08;;;;;;;;;;6056835;23;20014;-77
2023/09/19 12:30:20;;;;;;;6.65;1.35;;;;;;;;;;6061623;23;20065;-76
2023/09/19 12:32:48;;;;;;;1.75;0.85;;;;;;;;;;6059267;23;20006;-79
2023/09/19 12:35:36;;;;;;;7.07;1.52;;;;;;;;;;6059201;23;20015;-75
2023/09/19 12:38:03;;;;;;;1.30;1.08;;;;;;;;;;6055279;23;20122;-75
2023/09/19 12:40:33;;;;;;;4.88;1.35;;;;;;;;;;6058178;23;20014;-79
2023/09/19 12:42:59;;;;;;;2.88;1.20;;;;;;;;;;6057141;23;20017;-78
2023/09/19 12:45:26;;;;;;;7.18;2.10;;;;;;;;;;6073982;23;20028;-75
2023/09/19 12:48:29;;;;;;;1.63;1.10;;;;;;;;;;6061119;23;20030;-76
2023/09/19 12:51:12;;;;;;;5.95;1.23;;;;;;;;;;6055486;23;20222;-74
2023/09/19 12:53:42;;;;;;;2.03;1.20;;;;;;;;;;6056543;23;20017;-73
2023/09/19 12:56:19;;;;;;;1.27;1.00;;;;;;;;;;6058227;23;20007;-77
2023/09/19 12:59:03;;;;;;;1.88;0.93;;;;;;;;;;6062826;23;20432;-78
2023/09/19 13:01:29;;;;;;;1.80;1.00;;;;;;;;;;6061432;23;20015;-78
2023/09/19 13:04:19;;;;;;;1.63;1.05;;;;;;;;;;6062679;23;20006;-76
2023/09/19 13:06:49;;;;;;;1.33;0.93;;;;;;;;;;6067230;23;20011;-78
2023/09/19 13:09:16;;;;;;;2.22;1.90;;;;;;;;;;6066511;23;20006;-77
2023/09/19 13:11:47;;;;;;;3.05;1.05;;;;;;;;;;6064354;23;20022;-74
2023/09/19 13:14:19;;;;;;;;;;;;;;;;;;6058159;23;20122;-74
2023/09/19 13:17:16;;;;;;;1.67;1.02;;;;;;;;;;6053106;23;19984;-76
2023/09/19 13:19:54;;;;;;;1.48;0.90;;;;;;;;;;6053190;23;20433;-79
2023/09/19 13:22:42;;;;;;;2.45;1.10;;;;;;;;;;6054266;23;20508;-78
2023/09/19 13:25:14;;;;;;;1.80;0.90;;;;;;;;;;6057499;23;20042;-77
2023/09/19 13:27:44;;;;;;;3.08;0.88;;;;;;;;;;6053846;23;20023;-81
2023/09/19 13:30:10;;;;;;;10.02;1.52;;;;;;;;;;6056270;23;20022;-74
2023/09/19 13:32:36;;;;;;;1.42;0.82;;;;;;;;;;6056627;23;20010;-78
2023/09/19 13:35:01;;;;;;;2.17;1.00;;;;;;;;;;6066986;23;20018;-77
2023/09/19 13:37:27;;;;;;;1.23;1.00;;;;;;;;;;6074710;23;20693;-76
2023/09/19 13:39:53;;;;;;;2.58;1.02;;;;;;;;;;6082106;23;20011;-76
2023/09/19 13:42:21;;;;;;;7.40;1.02;;;;;;;;;;6054501;23;20011;-77
2023/09/19 13:44:48;;;;;;;2.20;1.10;;;;;;;;;;6058059;23;20013;-78
2023/09/19 13:47:15;;;;;;;0.95;0.70;;;;;;;;;;6055285;23;20011;-75
2023/09/19 13:49:40;;;;;;;7.28;1.88;;;;;;;;;;6058303;23;20023;-74
2023/09/19 13:52:07;;;;;;;0.82;0.80;;;;;;;;;;6059143;23;20098;-76
2023/09/19 13:54:34;;;;;;;1.33;0.63;;;;;;;;;;6082193;23;20011;-79
2023/09/19 13:57:00;;;;;;;3.08;1.10;;;;;;;;;;6063607;23;20094;-79
2023/09/19 13:59:28;;;;;;;1.15;0.80;;;;;;;;;;6060455;23;20026;-78
2023/09/19 14:01:55;;;;;;;2.85;0.90;;;;;;;;;;6060505;23;20611;-80
2023/09/19 14:04:21;;;;;;;1.77;0.90;;;;;;;;;;6064026;23;20030;-77
2023/09/19 14:06:47;;;;;;;2.33;0.80;;;;;;;;;;6062152;23;20042;-76
2023/09/19 14:09:13;;;;;;;1.27;0.90;;;;;;;;;;6062875;23;20317;-76
2023/09/19 14:11:39;;;;;;;1.85;1.02;;;;;;;;;;6060642;23;20019;-77
2023/09/19 14:14:07;;;;;;;0.77;0.70;;;;;;;;;;6070080;23;20098;-78
2023/09/19 14:16:33;;;;;;;1.63;1.17;;;;;;;;;;6071266;23;20006;-79
2023/09/19 14:19:00;;;;;;;1.52;1.00;;;;;;;;;;6067037;23;20002;-77
2023/09/19 14:21:26;;;;;;;1.13;0.93;;;;;;;;;;6086704;23;20010;-77
2023/09/19 14:23:54;;;;;;;0.95;0.75;;;;;;;;;;6064395;23;20014;-78
2023/09/19 14:26:20;;;;;;;1.40;0.90;;;;;;;;;;6066149;23;20306;-79
2023/09/19 14:28:47;;;;;;;2.38;0.93;;;;;;;;;;6065329;23;20024;-77
2023/09/19 14:31:13;;;;;;;1.83;1.00;;;;;;;;;;6064476;23;20385;-77
2023/09/19 14:33:38;;;;;;;2.28;1.13;;;;;;;;;;6064393;23;20074;-80
2023/09/19 14:36:10;;;;;;;2.30;0.90;;;;;;;;;;6066697;23;20442;-77
2023/09/19 14:38:37;;;;;;;1.40;1.08;;;;;;;;;;6064434;23;20068;-78
2023/09/19 14:41:03;;;;;;;1.27;1.00;;;;;;;;;;6066518;23;20010;-79
2023/09/19 14:43:30;;;;;;;3.20;1.00;;;;;;;;;;6063141;23;20014;-80
2023/09/19 14:45:57;;;;;;;3.60;1.10;;;;;;;;;;6069004;23;20014;-78
2023/09/19 14:48:25;;;;;;;2.75;1.30;;;;;;;;;;6071511;23;20003;-76
2023/09/19 14:50:52;;;;;;;2.00;1.13;;;;;;;;;;6072350;23;20006;-82
2023/09/19 14:53:17;;;;;;;2.30;1.00;;;;;;;;;;6078469;23;20010;-82
2023/09/19 14:55:44;;;;;;;1.08;0.75;;;;;;;;;;6101995;23;20066;-79
2023/09/19 14:58:12;;;;;;;2.28;0.90;;;;;;;;;;6079006;23;20337;-80
2023/09/19 15:00:37;;;;;;;2.78;0.93;;;;;;;;;;6067848;23;20065;-79
2023/09/19 15:03:04;;;;;;;2.33;1.00;;;;;;;;;;6087838;23;20003;-77
2023/09/19 15:05:30;;;;;;;2.53;0.93;;;;;;;;;;6065103;23;20011;-78
2023/09/19 15:07:56;;;;;;;4.95;1.08;;;;;;;;;;6066079;23;20017;-80
2023/09/19 15:10:23;;;;;;;2.63;1.23;;;;;;;;;;6087732;23;20113;-79
2023/09/19 15:12:48;;;;;;;7.97;1.38;;;;;;;;;;6065365;23;20601;-80
2023/09/19 15:15:14;;;;;;;1.98;0.93;;;;;;;;;;6067661;23;20006;-79
2023/09/19 15:17:39;;;;;;;1.33;0.80;;;;;;;;;;6064364;23;20003;-79